European Highlander — C6SN6 — position and weather

sailwx.info

Track history (hours):
 
Tides and Currents Weather Stations Pressure Air Temp Water Temp Dewpoint Dewpoint Depression Visibility Wind Speed Wind Dir Waves Ship Positions

European Highlander

Operator: P&O Irish Sea Ltd

Last reported at 2017-Dec-11 17:00 UTC. Time now 2017-Dec-12 04:28 UTC.
Position N 55°00' W 005°15'.

Length 161 m; draft 5.2 m.

Type: Passenger vessel. MMSI: 311404000.

Date/timePositionNaut miles runAvg speedWind from/ knotsBaromVisibWave heightAir tempDewpointWater temp
2017-Dec-11 17:00N 55°00' W 005°15'714.0
2017-Dec-11 16:30N 54°59' W 005°03'2 2.7
2017-Dec-11 15:54N 54°58' W 005°01'0 0.0
2017-Dec-11 15:30N 54°58' W 005°01'510.4
2017-Dec-11 15:00N 55°01' W 005°07'816.2
2017-Dec-11 14:31N 54°58' W 005°20'917.5
2017-Dec-11 14:01N 54°55' W 005°34'917.1
2017-Dec-11 13:30N 54°51' W 005°48'1 1.1
2017-Dec-11 12:58N 54°51' W 005°48'0 0.0
2017-Dec-11 12:28N 54°51' W 005°48'4 8.2
2017-Dec-11 12:00N 54°53' W 005°43'815.9
2017-Dec-11 11:30N 54°57' W 005°30'816.6
2017-Dec-11 11:00N 55°00' W 005°17'814.4
2017-Dec-11 10:26N 54°59' W 005°03'2 3.2
2017-Dec-11 09:54N 54°58' W 005°01'0 0.0
2017-Dec-11 09:31N 54°58' W 005°01'510.3
2017-Dec-11 09:00N 55°02' W 005°07'917.8
2017-Dec-11 08:30N 54°58' W 005°21'917.6
2017-Dec-11 08:00N 54°54' W 005°35'815.8
2017-Dec-11 07:30N 54°51' W 005°48'0 0.3
2017-Dec-11 06:59N 54°51' W 005°48'0 0.0
2017-Dec-11 06:29N 54°51' W 005°48'0 0.0
2017-Dec-11 05:59N 54°51' W 005°48'4 7.6
2017-Dec-11 05:30N 54°53' W 005°43'917.9
2017-Dec-11 05:00N 54°57' W 005°29'918.0
2017-Dec-11 04:30N 55°01' W 005°15'714.2
2017-Dec-11 04:00N 54°59' W 005°03'1 1.5
2017-Dec-11 03:04N 54°58' W 005°01'0 0.0
2017-Dec-11 02:58N 54°58' W 005°01'0 0.0
2017-Dec-11 02:28N 54°58' W 005°01'0 0.0
2017-Dec-11 01:46N 54°58' W 005°01'0 0.0
2017-Dec-11 01:22N 54°58' W 005°01'0 0.0
2017-Dec-11 01:00N 54°58' W 005°01'510.4
2017-Dec-11 00:30N 55°01' W 005°07'1019.5
2017-Dec-11 00:01N 54°57' W 005°22'1020.3
2017-Dec-10 23:30N 54°54' W 005°39'611.7
2017-Dec-10 23:00N 54°51' W 005°48'0 0.0
2017-Dec-10 22:30N 54°51' W 005°48'0 0.0
2017-Dec-10 22:00N 54°51' W 005°48'4 7.5
2017-Dec-10 21:30N 54°53' W 005°43'918.4
2017-Dec-10 21:00N 54°57' W 005°29'918.1
2017-Dec-10 20:30N 55°01' W 005°14'713.2
2017-Dec-10 20:00N 54°59' W 005°03'2 3.1
2017-Dec-10 19:27N 54°58' W 005°01'0 0.0
2017-Dec-10 18:51N 54°58' W 005°01'2 4.3
2017-Dec-10 18:30N 54°59' W 005°03'714.7
2017-Dec-10 18:00N 54°60' W 005°15'1020.0
2017-Dec-10 17:30N 54°55' W 005°31'1019.3
2017-Dec-10 17:00N 54°52' W 005°47'1 2.5
2017-Dec-10 16:29N 54°51' W 005°48'0 0.0
2017-Dec-10 15:59N 54°51' W 005°48'0 0.0
2017-Dec-10 15:29N 54°51' W 005°48'0 0.0
2017-Dec-10 14:59N 54°51' W 005°48'2 4.4
2017-Dec-10 14:30N 54°52' W 005°45'918.2
2017-Dec-10 14:00N 54°56' W 005°31'918.9
2017-Dec-10 13:30N 55°01' W 005°16'814.4
2017-Dec-10 12:57N 54°59' W 005°03'2 4.0
2017-Dec-10 12:30N 54°58' W 005°01'0 0.0
2017-Dec-10 12:00N 54°58' W 005°01'0 0.0
2017-Dec-10 11:27N 54°58' W 005°01'0 0.7
2017-Dec-10 10:56N 54°58' W 005°02'0 0.1
2017-Dec-10 10:29N 54°58' W 005°02'0 0.6
2017-Dec-10 09:49N 54°58' W 005°01'0 0.0
2017-Dec-10 09:30N 54°58' W 005°01'510.0
2017-Dec-10 09:00N 55°02' W 005°07'917.4
2017-Dec-10 08:30N 54°58' W 005°20'917.8
2017-Dec-10 08:00N 54°54' W 005°35'816.3
2017-Dec-10 07:30N 54°51' W 005°48'1 0.9
2017-Dec-10 06:58N 54°51' W 005°48'0 0.0
2017-Dec-10 06:28N 54°51' W 005°48'0 0.0
2017-Dec-10 05:58N 54°51' W 005°48'0 0.0
2017-Dec-10 05:28N 54°51' W 005°48'0 0.0
2017-Dec-10 04:55N 54°51' W 005°48'0 0.0
2017-Dec-10 04:28N 54°51' W 005°48'0 0.0
2017-Dec-10 03:55N 54°51' W 005°48'0 0.0
2017-Dec-10 03:25N 54°51' W 005°48'0 0.0
2017-Dec-10 02:58N 54°51' W 005°48'0 0.0
2017-Dec-10 02:28N 54°51' W 005°48'0 0.0
2017-Dec-10 01:55N 54°51' W 005°48'0 0.0
2017-Dec-10 01:28N 54°51' W 005°48'0 0.0
2017-Dec-10 00:43N 54°51' W 005°48'0 0.0
2017-Dec-10 00:25N 54°51' W 005°48'0 0.0
2017-Dec-09 23:58N 54°51' W 005°48'0 0.0
2017-Dec-09 23:25N 54°51' W 005°48'0 0.0
2017-Dec-09 22:58N 54°51' W 005°48'0 0.0
2017-Dec-09 22:28N 54°51' W 005°48'0 0.0
2017-Dec-09 21:58N 54°51' W 005°48'1 3.2
2017-Dec-09 21:30N 54°52' W 005°47'918.5
2017-Dec-09 21:00N 54°56' W 005°32'918.1
2017-Dec-09 20:30N 54°60' W 005°18'814.8
2017-Dec-09 19:56N 54°59' W 005°03'2 4.9
2017-Dec-09 19:30N 54°58' W 005°01'0 0.0
2017-Dec-09 18:45N 54°58' W 005°01'0 0.0
2017-Dec-09 18:28N 54°58' W 005°01'5 9.1
2017-Dec-09 17:55N 55°02' W 005°07'818.6
2017-Dec-09 17:31N 54°58' W 005°19'918.7
2017-Dec-09 17:01N 54°53' W 005°32'917.7
2017-Dec-09 16:30N 54°52' W 005°48'1 1.7
2017-Dec-09 16:00N 54°51' W 005°48'0 0.0
2017-Dec-09 15:30N 54°51' W 005°48'5 9.6
2017-Dec-09 15:00N 54°54' W 005°41'815.1
2017-Dec-09 14:31N 54°57' W 005°29'917.7
2017-Dec-09 14:01N 55°00' W 005°15'713.8
2017-Dec-09 13:29N 54°59' W 005°03'2 2.7
2017-Dec-09 12:53N 54°58' W 005°01'0 0.0
2017-Dec-09 12:29N 54°58' W 005°01'5 9.1
2017-Dec-09 11:55N 55°02' W 005°07'717.1
2017-Dec-09 11:31N 54°59' W 005°18'918.4
2017-Dec-09 11:01N 54°55' W 005°33'918.2
2017-Dec-09 10:30N 54°51' W 005°48'0 0.8
2017-Dec-09 10:00N 54°51' W 005°48'0 0.0
2017-Dec-09 09:30N 54°51' W 005°48'4 7.7
2017-Dec-09 09:01N 54°53' W 005°43'917.7
2017-Dec-09 08:31N 54°57' W 005°29'917.3
2017-Dec-09 08:00N 55°00' W 005°15'714.1
2017-Dec-09 07:30N 54°59' W 005°03'2 2.8
2017-Dec-09 06:56N 54°58' W 005°01'0 0.0
2017-Dec-09 06:29N 54°58' W 005°01'0 0.0
2017-Dec-09 06:00N 54°58' W 005°01'611.4
2017-Dec-09 05:30N 55°01' W 005°09'918.2
2017-Dec-09 05:01N 54°58' W 005°23'917.8
2017-Dec-09 04:30N 54°54' W 005°37'714.0
2017-Dec-09 04:00N 54°51' W 005°48'0 0.0
2017-Dec-09 03:29N 54°51' W 005°48'0 0.0
2017-Dec-09 02:59N 54°51' W 005°48'0 0.0
2017-Dec-09 02:29N 54°51' W 005°48'0 0.1
2017-Dec-09 02:00N 54°51' W 005°48'713.8
2017-Dec-09 01:30N 54°54' W 005°38'816.6
2017-Dec-09 01:00N 54°58' W 005°25'917.1
2017-Dec-09 00:30N 55°02' W 005°11'612.6
2017-Dec-09 00:00N 54°58' W 005°02'1 1.5
2017-Dec-08 23:27N 54°58' W 005°01'0 0.0
2017-Dec-08 23:00N 54°58' W 005°01'0 0.0
2017-Dec-08 22:30N 54°58' W 005°01'0 0.0
2017-Dec-08 22:00N 54°58' W 005°01'5 9.8
2017-Dec-08 21:29N 55°01' W 005°07'817.7
2017-Dec-08 21:00N 54°58' W 005°20'1019.6
2017-Dec-08 20:30N 54°54' W 005°36'715.0
2017-Dec-08 20:01N 54°51' W 005°48'0 0.1
2017-Dec-08 19:22N 54°51' W 005°48'0 0.0
2017-Dec-08 18:58N 54°51' W 005°48'0 0.0
2017-Dec-08 18:28N 54°51' W 005°48'5 9.7
2017-Dec-08 18:00N 54°53' W 005°41'1020.0
2017-Dec-08 17:30N 54°58' W 005°26'1019.3
2017-Dec-08 17:00N 55°02' W 005°10'713.2
2017-Dec-08 16:30N 54°58' W 005°01'0 0.0
2017-Dec-08 15:57N 54°58' W 005°01'0 0.1
2017-Dec-08 15:14N 54°58' W 005°01'613.7
2017-Dec-08 14:49N 55°02' W 005°08'619.3
2017-Dec-08 14:30N 54°59' W 005°17'1019.7
2017-Dec-08 14:01N 54°55' W 005°33'917.8
2017-Dec-08 13:29N 54°51' W 005°48'0 0.4
2017-Dec-08 13:00N 54°51' W 005°48'0 0.0
2017-Dec-08 12:30N 54°51' W 005°48'510.6
2017-Dec-08 12:01N 54°54' W 005°40'1019.7
2017-Dec-08 11:30N 54°58' W 005°24'1315.9
2017-Dec-08 10:42N 54°59' W 005°02'1 1.7
2017-Dec-08 09:55N 54°58' W 005°01'0 0.3
2017-Dec-08 09:29N 54°58' W 005°01'612.6
2017-Dec-08 09:00N 55°01' W 005°09'816.2
2017-Dec-08 08:31N 54°57' W 005°21'917.3
2017-Dec-08 08:01N 54°54' W 005°35'815.8
2017-Dec-08 07:30N 54°51' W 005°48'0 0.3
2017-Dec-08 06:58N 54°51' W 005°48'0 0.0
2017-Dec-08 06:28N 54°51' W 005°48'0 0.0
2017-Dec-08 05:58N 54°51' W 005°48'3 6.2
2017-Dec-08 05:30N 54°53' W 005°44'1020.8
2017-Dec-08 05:00N 54°58' W 005°28'918.6
2017-Dec-08 04:30N 55°01' W 005°13'815.0
2017-Dec-08 04:00N 54°58' W 005°01'0 0.2
2017-Dec-08 02:18N 54°58' W 005°01'0 0.1
2017-Dec-08 02:00N 54°58' W 005°01'612.8
2017-Dec-08 01:31N 55°01' W 005°10'917.0
2017-Dec-08 01:00N 54°57' W 005°23'917.7
2017-Dec-08 00:30N 54°54' W 005°37'713.5
2017-Dec-08 00:00N 54°51' W 005°48'0 0.0
2017-Dec-07 23:30N 54°51' W 005°48'0 0.0
2017-Dec-07 23:00N 54°51' W 005°48'0 0.0
2017-Dec-07 22:30N 54°51' W 005°48'0 0.0
2017-Dec-07 21:59N 54°51' W 005°48'2811.8
2017-Dec-07 19:38N 54°58' W 005°01'0 0.0
2017-Dec-07 19:29N 54°58' W 005°01'0 0.0
2017-Dec-07 18:56N 54°58' W 005°01'0 0.1
2017-Dec-07 18:29N 54°58' W 005°01'510.3
2017-Dec-07 17:59N 55°02' W 005°07'817.2
2017-Dec-07 17:31N 54°58' W 005°20'1019.5
2017-Dec-07 17:00N 54°54' W 005°35'815.8
2017-Dec-07 16:31N 54°51' W 005°48'0 0.2
2017-Dec-07 15:59N 54°51' W 005°48'0 0.0
2017-Dec-07 15:29N 54°51' W 005°48'510.1
2017-Dec-07 15:00N 54°54' W 005°41'1019.6
2017-Dec-07 14:30N 54°59' W 005°27'918.8
2017-Dec-07 14:00N 55°02' W 005°11'713.9
2017-Dec-07 13:30N 54°58' W 005°01'0 0.3
2017-Dec-07 12:47N 54°58' W 005°01'0 0.0
2017-Dec-07 12:29N 54°58' W 005°01'510.5
2017-Dec-07 12:00N 55°01' W 005°07'918.1
2017-Dec-07 11:30N 54°58' W 005°21'1019.8
2017-Dec-07 11:00N 54°54' W 005°37'713.7
2017-Dec-07 10:30N 54°51' W 005°48'0 0.0
2017-Dec-07 09:54N 54°51' W 005°48'0 0.1
2017-Dec-07 09:30N 54°51' W 005°48'714.4
2017-Dec-07 09:00N 54°54' W 005°37'917.8
2017-Dec-07 08:30N 54°59' W 005°23'917.9
2017-Dec-07 08:00N 55°02' W 005°09'713.4
2017-Dec-07 07:30N 54°58' W 005°01'0 0.0
2017-Dec-07 06:58N 54°58' W 005°01'0 0.0
2017-Dec-07 06:28N 54°58' W 005°01'0 0.0
2017-Dec-07 06:00N 54°58' W 005°01'5 8.9
2017-Dec-07 05:26N 55°02' W 005°07'819.8
2017-Dec-07 05:00N 54°58' W 005°20'1019.4
2017-Dec-07 04:30N 54°54' W 005°36'715.3
2017-Dec-07 04:00N 54°51' W 005°48'0 0.1
2017-Dec-07 03:30N 54°51' W 005°48'0 0.0
2017-Dec-07 03:00N 54°51' W 005°48'0 0.0
2017-Dec-07 02:30N 54°51' W 005°48'0 0.0
2017-Dec-07 02:00N 54°51' W 005°48'610.8
2017-Dec-07 01:29N 54°54' W 005°40'919.0
2017-Dec-07 01:00N 54°59' W 005°26'918.8
2017-Dec-07 00:30N 55°01' W 005°10'7 2.8
2017-Dec-06 22:11N 54°58' W 005°01'0 0.1
2017-Dec-06 22:00N 54°58' W 005°01'611.6
2017-Dec-06 21:29N 55°01' W 005°09'918.4
2017-Dec-06 21:00N 54°58' W 005°23'  
2017-Dec-04 10:24N 54°59' W 005°02'1 1.1
2017-Dec-04 09:19N 54°58' W 005°01'513.7
2017-Dec-04 08:55N 55°01' W 005°08'716.7
2017-Dec-04 08:31N 54°58' W 005°18'917.7
2017-Dec-04 08:00N 54°55' W 005°33'918.5
2017-Dec-04 07:30N 54°51' W 005°48'1 1.3
2017-Dec-04 07:00N 54°51' W 005°48'0 0.0
2017-Dec-04 06:30N 54°51' W 005°48'0 0.0
2017-Dec-04 06:00N 54°51' W 005°48'5 9.9
2017-Dec-04 05:29N 54°54' W 005°41'816.6
2017-Dec-04 05:00N 54°58' W 005°28'917.6
2017-Dec-04 04:30N 55°00' W 005°14'713.5
2017-Dec-04 04:00N 54°59' W 005°02'1 0.4
2017-Dec-04 00:56N 54°58' W 005°01'613.7
2017-Dec-04 00:30N 55°01' W 005°09'918.8
2017-Dec-04 00:00N 54°57' W 005°24'917.5
2017-Dec-03 23:30N 54°54' W 005°38'613.1
2017-Dec-03 23:00N 54°51' W 005°48'0 0.0
2017-Dec-03 22:29N 54°51' W 005°48'0 0.0
2017-Dec-03 21:59N 54°51' W 005°48'4 9.3
2017-Dec-03 21:30N 54°53' W 005°42'918.1
2017-Dec-03 21:01N 54°57' W 005°28'918.8
2017-Dec-03 20:30N 55°01' W 005°12'612.7
2017-Dec-03 20:00N 54°59' W 005°02'1 1.0
2017-Dec-03 18:57N 54°58' W 005°01'0 0.0
2017-Dec-03 18:30N 54°58' W 005°01'5 9.3
2017-Dec-03 17:56N 55°02' W 005°07'716.3
2017-Dec-03 17:30N 54°59' W 005°18'918.5
2017-Dec-03 17:01N 54°55' W 005°33'917.8
2017-Dec-03 16:30N 54°51' W 005°48'1 1.2
2017-Dec-03 15:59N 54°51' W 005°48'0 0.0
2017-Dec-03 15:26N 54°51' W 005°48'0 0.0
2017-Dec-03 14:59N 54°51' W 005°48'4 8.7
2017-Dec-03 14:30N 54°53' W 005°42'918.1
2017-Dec-03 14:01N 54°57' W 005°28'917.6
2017-Dec-03 13:30N 55°01' W 005°14'714.0
2017-Dec-03 13:00N 54°59' W 005°02'1 0.4
2017-Dec-03 09:18N 54°58' W 005°01'613.6
2017-Dec-03 08:53N 55°01' W 005°09'616.5
2017-Dec-03 08:31N 54°58' W 005°18'816.4
2017-Dec-03 08:01N 54°54' W 005°30'1018.6
2017-Dec-03 07:27N 54°52' W 005°48'1 1.8
2017-Dec-03 07:00N 54°51' W 005°48'0 0.0
2017-Dec-03 06:30N 54°51' W 005°48'0 0.0
2017-Dec-03 06:00N 54°51' W 005°48'0 0.0
2017-Dec-03 05:30N 54°51' W 005°48'0 0.0
2017-Dec-03 04:57N 54°51' W 005°48'0 0.0
2017-Dec-03 04:30N 54°51' W 005°48'0 0.0
2017-Dec-03 04:00N 54°51' W 005°48'0 0.0
2017-Dec-03 03:30N 54°51' W 005°48'0 0.0
2017-Dec-03 03:00N 54°51' W 005°48'0 0.0
2017-Dec-03 02:30N 54°51' W 005°48'0 0.0
2017-Dec-03 02:00N 54°51' W 005°48'0 0.0
2017-Dec-03 01:30N 54°51' W 005°48'0 0.0
2017-Dec-03 01:00N 54°51' W 005°48'0 0.0
2017-Dec-03 00:30N 54°51' W 005°48'0 0.0
2017-Dec-03 00:00N 54°51' W 005°48'0 0.0
2017-Dec-02 23:30N 54°51' W 005°48'0 0.0
2017-Dec-02 23:00N 54°51' W 005°48'0 0.0
2017-Dec-02 22:30N 54°51' W 005°48'0 0.0
2017-Dec-02 21:57N 54°51' W 005°48'2 5.0
2017-Dec-02 21:28N 54°52' W 005°45'817.6
2017-Dec-02 21:00N 54°56' W 005°32'917.7
2017-Dec-02 20:30N 54°59' W 005°18'914.1
2017-Dec-02 19:53N 54°59' W 005°02'1 1.3
2017-Dec-02 18:46N 54°58' W 005°01'0 0.1
2017-Dec-02 18:26N 54°58' W 005°01'611.3
2017-Dec-02 17:56N 55°01' W 005°08'715.9
2017-Dec-02 17:30N 54°58' W 005°19'817.0
2017-Dec-02 17:00N 54°55' W 005°33'918.2
2017-Dec-02 16:30N 54°52' W 005°47'1 1.9
2017-Dec-02 16:00N 54°51' W 005°48'0 0.0
2017-Dec-02 15:30N 54°51' W 005°48'610.1
2017-Dec-02 14:57N 54°54' W 005°40'715.8
2017-Dec-02 14:31N 54°57' W 005°29'916.1
2017-Dec-02 13:57N 55°01' W 005°15'714.2
2017-Dec-02 13:27N 54°59' W 005°03'1 3.0
2017-Dec-02 12:58N 54°58' W 005°01'0 0.0
2017-Dec-02 12:26N 54°58' W 005°01'610.2
2017-Dec-02 11:54N 55°01' W 005°08'718.7
2017-Dec-02 11:30N 54°58' W 005°19'1017.8
2017-Dec-02 10:57N 54°54' W 005°35'816.4
2017-Dec-02 10:28N 54°51' W 005°48'0 0.3
2017-Dec-02 09:59N 54°51' W 005°48'0 0.0
2017-Dec-02 09:29N 54°51' W 005°48'4 8.3
2017-Dec-02 09:00N 54°53' W 005°42'917.5
2017-Dec-02 08:30N 54°57' W 005°28'918.1
2017-Dec-02 08:00N 55°01' W 005°14'713.7
2017-Dec-02 07:30N 54°59' W 005°02'1 0.9
2017-Dec-02 05:53N 54°58' W 005°01'510.3
2017-Dec-02 05:24N 55°02' W 005°07'616.6
2017-Dec-02 05:00N 54°59' W 005°17'918.1
2017-Dec-02 04:30N 54°55' W 005°31'1018.7
2017-Dec-02 03:58N 54°52' W 005°47'1 1.8
2017-Dec-02 03:28N 54°51' W 005°48'0 0.0
2017-Dec-02 02:58N 54°51' W 005°48'0 0.0
2017-Dec-02 02:28N 54°51' W 005°48'0 0.0
2017-Dec-02 01:58N 54°51' W 005°48'4 8.0
2017-Dec-02 01:30N 54°53' W 005°43'918.2
2017-Dec-02 01:01N 54°57' W 005°29'917.7
2017-Dec-02 00:31N 55°01' W 005°15'713.9
2017-Dec-02 00:00N 54°59' W 005°03'2 0.8
2017-Dec-01 21:53N 54°58' W 005°01'512.9
2017-Dec-01 21:30N 55°02' W 005°07'918.0
2017-Dec-01 21:00N 54°58' W 005°21'918.5
2017-Dec-01 20:30N 54°54' W 005°36'815.5
2017-Dec-01 20:01N 54°51' W 005°48'0 0.1
2017-Dec-01 19:30N 54°51' W 005°48'0 0.0
2017-Dec-01 19:00N 54°51' W 005°48'0 0.0
2017-Dec-01 18:31N 54°51' W 005°48'611.6
2017-Dec-01 18:00N 54°54' W 005°39'917.6
2017-Dec-01 17:30N 54°58' W 005°26'  
Track history (hours):
 
Tides and Currents Weather Stations Pressure Air Temp Water Temp Dewpoint Dewpoint Depression Visibility Wind Speed Wind Dir Waves Ship Positions

European Highlander

Operator: P&O Irish Sea Ltd

Last reported at 2017-Dec-11 17:00 UTC. Time now 2017-Dec-12 04:28 UTC.
Position N 55°00' W 005°15'.

Length 161 m; draft 5.2 m.

Type: Passenger vessel. MMSI: 311404000.

Date/timePositionNaut miles runAvg speedWind from/ knotsBaromVisibWave heightAir tempDewpointWater temp
2017-Dec-11 17:00N 55°00' W 005°15'714.0
2017-Dec-11 16:30N 54°59' W 005°03'2 2.7
2017-Dec-11 15:54N 54°58' W 005°01'0 0.0
2017-Dec-11 15:30N 54°58' W 005°01'510.4
2017-Dec-11 15:00N 55°01' W 005°07'816.2
2017-Dec-11 14:31N 54°58' W 005°20'917.5
2017-Dec-11 14:01N 54°55' W 005°34'917.1
2017-Dec-11 13:30N 54°51' W 005°48'1 1.1
2017-Dec-11 12:58N 54°51' W 005°48'0 0.0
2017-Dec-11 12:28N 54°51' W 005°48'4 8.2
2017-Dec-11 12:00N 54°53' W 005°43'815.9
2017-Dec-11 11:30N 54°57' W 005°30'816.6
2017-Dec-11 11:00N 55°00' W 005°17'814.4
2017-Dec-11 10:26N 54°59' W 005°03'2 3.2
2017-Dec-11 09:54N 54°58' W 005°01'0 0.0
2017-Dec-11 09:31N 54°58' W 005°01'510.3
2017-Dec-11 09:00N 55°02' W 005°07'917.8
2017-Dec-11 08:30N 54°58' W 005°21'917.6
2017-Dec-11 08:00N 54°54' W 005°35'815.8
2017-Dec-11 07:30N 54°51' W 005°48'0 0.3
2017-Dec-11 06:59N 54°51' W 005°48'0 0.0
2017-Dec-11 06:29N 54°51' W 005°48'0 0.0
2017-Dec-11 05:59N 54°51' W 005°48'4 7.6
2017-Dec-11 05:30N 54°53' W 005°43'917.9
2017-Dec-11 05:00N 54°57' W 005°29'918.0
2017-Dec-11 04:30N 55°01' W 005°15'714.2
2017-Dec-11 04:00N 54°59' W 005°03'1 1.5
2017-Dec-11 03:04N 54°58' W 005°01'0 0.0
2017-Dec-11 02:58N 54°58' W 005°01'0 0.0
2017-Dec-11 02:28N 54°58' W 005°01'0 0.0
2017-Dec-11 01:46N 54°58' W 005°01'0 0.0
2017-Dec-11 01:22N 54°58' W 005°01'0 0.0
2017-Dec-11 01:00N 54°58' W 005°01'510.4
2017-Dec-11 00:30N 55°01' W 005°07'1019.5
2017-Dec-11 00:01N 54°57' W 005°22'1020.3
2017-Dec-10 23:30N 54°54' W 005°39'611.7
2017-Dec-10 23:00N 54°51' W 005°48'0 0.0
2017-Dec-10 22:30N 54°51' W 005°48'0 0.0
2017-Dec-10 22:00N 54°51' W 005°48'4 7.5
2017-Dec-10 21:30N 54°53' W 005°43'918.4
2017-Dec-10 21:00N 54°57' W 005°29'918.1
2017-Dec-10 20:30N 55°01' W 005°14'713.2
2017-Dec-10 20:00N 54°59' W 005°03'2 3.1
2017-Dec-10 19:27N 54°58' W 005°01'0 0.0
2017-Dec-10 18:51N 54°58' W 005°01'2 4.3
2017-Dec-10 18:30N 54°59' W 005°03'714.7
2017-Dec-10 18:00N 54°60' W 005°15'1020.0
2017-Dec-10 17:30N 54°55' W 005°31'1019.3
2017-Dec-10 17:00N 54°52' W 005°47'1 2.5
2017-Dec-10 16:29N 54°51' W 005°48'0 0.0
2017-Dec-10 15:59N 54°51' W 005°48'0 0.0
2017-Dec-10 15:29N 54°51' W 005°48'0 0.0
2017-Dec-10 14:59N 54°51' W 005°48'2 4.4
2017-Dec-10 14:30N 54°52' W 005°45'918.2
2017-Dec-10 14:00N 54°56' W 005°31'918.9
2017-Dec-10 13:30N 55°01' W 005°16'814.4
2017-Dec-10 12:57N 54°59' W 005°03'2 4.0
2017-Dec-10 12:30N 54°58' W 005°01'0 0.0
2017-Dec-10 12:00N 54°58' W 005°01'0 0.0
2017-Dec-10 11:27N 54°58' W 005°01'0 0.7
2017-Dec-10 10:56N 54°58' W 005°02'0 0.1
2017-Dec-10 10:29N 54°58' W 005°02'0 0.6
2017-Dec-10 09:49N 54°58' W 005°01'0 0.0
2017-Dec-10 09:30N 54°58' W 005°01'510.0
2017-Dec-10 09:00N 55°02' W 005°07'917.4
2017-Dec-10 08:30N 54°58' W 005°20'917.8
2017-Dec-10 08:00N 54°54' W 005°35'816.3
2017-Dec-10 07:30N 54°51' W 005°48'1 0.9
2017-Dec-10 06:58N 54°51' W 005°48'0 0.0
2017-Dec-10 06:28N 54°51' W 005°48'0 0.0
2017-Dec-10 05:58N 54°51' W 005°48'0 0.0
2017-Dec-10 05:28N 54°51' W 005°48'0 0.0
2017-Dec-10 04:55N 54°51' W 005°48'0 0.0
2017-Dec-10 04:28N 54°51' W 005°48'0 0.0
2017-Dec-10 03:55N 54°51' W 005°48'0 0.0
2017-Dec-10 03:25N 54°51' W 005°48'0 0.0
2017-Dec-10 02:58N 54°51' W 005°48'0 0.0
2017-Dec-10 02:28N 54°51' W 005°48'0 0.0
2017-Dec-10 01:55N 54°51' W 005°48'0 0.0
2017-Dec-10 01:28N 54°51' W 005°48'0 0.0
2017-Dec-10 00:43N 54°51' W 005°48'0 0.0
2017-Dec-10 00:25N 54°51' W 005°48'0 0.0
2017-Dec-09 23:58N 54°51' W 005°48'0 0.0
2017-Dec-09 23:25N 54°51' W 005°48'0 0.0
2017-Dec-09 22:58N 54°51' W 005°48'0 0.0
2017-Dec-09 22:28N 54°51' W 005°48'0 0.0
2017-Dec-09 21:58N 54°51' W 005°48'1 3.2
2017-Dec-09 21:30N 54°52' W 005°47'918.5
2017-Dec-09 21:00N 54°56' W 005°32'918.1
2017-Dec-09 20:30N 54°60' W 005°18'814.8
2017-Dec-09 19:56N 54°59' W 005°03'2 4.9
2017-Dec-09 19:30N 54°58' W 005°01'0 0.0
2017-Dec-09 18:45N 54°58' W 005°01'0 0.0
2017-Dec-09 18:28N 54°58' W 005°01'5 9.1
2017-Dec-09 17:55N 55°02' W 005°07'818.6
2017-Dec-09 17:31N 54°58' W 005°19'918.7
2017-Dec-09 17:01N 54°53' W 005°32'917.7
2017-Dec-09 16:30N 54°52' W 005°48'1 1.7
2017-Dec-09 16:00N 54°51' W 005°48'0 0.0
2017-Dec-09 15:30N 54°51' W 005°48'5 9.6
2017-Dec-09 15:00N 54°54' W 005°41'815.1
2017-Dec-09 14:31N 54°57' W 005°29'917.7
2017-Dec-09 14:01N 55°00' W 005°15'713.8
2017-Dec-09 13:29N 54°59' W 005°03'2 2.7
2017-Dec-09 12:53N 54°58' W 005°01'0 0.0
2017-Dec-09 12:29N 54°58' W 005°01'5 9.1
2017-Dec-09 11:55N 55°02' W 005°07'717.1
2017-Dec-09 11:31N 54°59' W 005°18'918.4
2017-Dec-09 11:01N 54°55' W 005°33'918.2
2017-Dec-09 10:30N 54°51' W 005°48'0 0.8
2017-Dec-09 10:00N 54°51' W 005°48'0 0.0
2017-Dec-09 09:30N 54°51' W 005°48'4 7.7
2017-Dec-09 09:01N 54°53' W 005°43'917.7
2017-Dec-09 08:31N 54°57' W 005°29'917.3
2017-Dec-09 08:00N 55°00' W 005°15'714.1
2017-Dec-09 07:30N 54°59' W 005°03'2 2.8
2017-Dec-09 06:56N 54°58' W 005°01'0 0.0
2017-Dec-09 06:29N 54°58' W 005°01'0 0.0
2017-Dec-09 06:00N 54°58' W 005°01'611.4
2017-Dec-09 05:30N 55°01' W 005°09'918.2
2017-Dec-09 05:01N 54°58' W 005°23'917.8
2017-Dec-09 04:30N 54°54' W 005°37'714.0
2017-Dec-09 04:00N 54°51' W 005°48'0 0.0
2017-Dec-09 03:29N 54°51' W 005°48'0 0.0
2017-Dec-09 02:59N 54°51' W 005°48'0 0.0
2017-Dec-09 02:29N 54°51' W 005°48'0 0.1
2017-Dec-09 02:00N 54°51' W 005°48'713.8
2017-Dec-09 01:30N 54°54' W 005°38'816.6
2017-Dec-09 01:00N 54°58' W 005°25'917.1
2017-Dec-09 00:30N 55°02' W 005°11'612.6
2017-Dec-09 00:00N 54°58' W 005°02'1 1.5
2017-Dec-08 23:27N 54°58' W 005°01'0 0.0
2017-Dec-08 23:00N 54°58' W 005°01'0 0.0
2017-Dec-08 22:30N 54°58' W 005°01'0 0.0
2017-Dec-08 22:00N 54°58' W 005°01'5 9.8
2017-Dec-08 21:29N 55°01' W 005°07'817.7
2017-Dec-08 21:00N 54°58' W 005°20'1019.6
2017-Dec-08 20:30N 54°54' W 005°36'715.0
2017-Dec-08 20:01N 54°51' W 005°48'0 0.1
2017-Dec-08 19:22N 54°51' W 005°48'0 0.0
2017-Dec-08 18:58N 54°51' W 005°48'0 0.0
2017-Dec-08 18:28N 54°51' W 005°48'5 9.7
2017-Dec-08 18:00N 54°53' W 005°41'1020.0
2017-Dec-08 17:30N 54°58' W 005°26'1019.3
2017-Dec-08 17:00N 55°02' W 005°10'713.2
2017-Dec-08 16:30N 54°58' W 005°01'0 0.0
2017-Dec-08 15:57N 54°58' W 005°01'0 0.1
2017-Dec-08 15:14N 54°58' W 005°01'613.7
2017-Dec-08 14:49N 55°02' W 005°08'619.3
2017-Dec-08 14:30N 54°59' W 005°17'1019.7
2017-Dec-08 14:01N 54°55' W 005°33'917.8
2017-Dec-08 13:29N 54°51' W 005°48'0 0.4
2017-Dec-08 13:00N 54°51' W 005°48'0 0.0
2017-Dec-08 12:30N 54°51' W 005°48'510.6
2017-Dec-08 12:01N 54°54' W 005°40'1019.7
2017-Dec-08 11:30N 54°58' W 005°24'1315.9
2017-Dec-08 10:42N 54°59' W 005°02'1 1.7
2017-Dec-08 09:55N 54°58' W 005°01'0 0.3
2017-Dec-08 09:29N 54°58' W 005°01'612.6
2017-Dec-08 09:00N 55°01' W 005°09'816.2
2017-Dec-08 08:31N 54°57' W 005°21'917.3
2017-Dec-08 08:01N 54°54' W 005°35'815.8
2017-Dec-08 07:30N 54°51' W 005°48'0 0.3
2017-Dec-08 06:58N 54°51' W 005°48'0 0.0
2017-Dec-08 06:28N 54°51' W 005°48'0 0.0
2017-Dec-08 05:58N 54°51' W 005°48'3 6.2
2017-Dec-08 05:30N 54°53' W 005°44'1020.8
2017-Dec-08 05:00N 54°58' W 005°28'918.6
2017-Dec-08 04:30N 55°01' W 005°13'815.0
2017-Dec-08 04:00N 54°58' W 005°01'0 0.2
2017-Dec-08 02:18N 54°58' W 005°01'0 0.1
2017-Dec-08 02:00N 54°58' W 005°01'612.8
2017-Dec-08 01:31N 55°01' W 005°10'917.0
2017-Dec-08 01:00N 54°57' W 005°23'917.7
2017-Dec-08 00:30N 54°54' W 005°37'713.5
2017-Dec-08 00:00N 54°51' W 005°48'0 0.0
2017-Dec-07 23:30N 54°51' W 005°48'0 0.0
2017-Dec-07 23:00N 54°51' W 005°48'0 0.0
2017-Dec-07 22:30N 54°51' W 005°48'0 0.0
2017-Dec-07 21:59N 54°51' W 005°48'2811.8
2017-Dec-07 19:38N 54°58' W 005°01'0 0.0
2017-Dec-07 19:29N 54°58' W 005°01'0 0.0
2017-Dec-07 18:56N 54°58' W 005°01'0 0.1
2017-Dec-07 18:29N 54°58' W 005°01'510.3
2017-Dec-07 17:59N 55°02' W 005°07'817.2
2017-Dec-07 17:31N 54°58' W 005°20'1019.5
2017-Dec-07 17:00N 54°54' W 005°35'815.8
2017-Dec-07 16:31N 54°51' W 005°48'0 0.2
2017-Dec-07 15:59N 54°51' W 005°48'0 0.0
2017-Dec-07 15:29N 54°51' W 005°48'510.1
2017-Dec-07 15:00N 54°54' W 005°41'1019.6
2017-Dec-07 14:30N 54°59' W 005°27'918.8
2017-Dec-07 14:00N 55°02' W 005°11'713.9
2017-Dec-07 13:30N 54°58' W 005°01'0 0.3
2017-Dec-07 12:47N 54°58' W 005°01'0 0.0
2017-Dec-07 12:29N 54°58' W 005°01'510.5
2017-Dec-07 12:00N 55°01' W 005°07'918.1
2017-Dec-07 11:30N 54°58' W 005°21'1019.8
2017-Dec-07 11:00N 54°54' W 005°37'713.7
2017-Dec-07 10:30N 54°51' W 005°48'0 0.0
2017-Dec-07 09:54N 54°51' W 005°48'0 0.1
2017-Dec-07 09:30N 54°51' W 005°48'714.4
2017-Dec-07 09:00N 54°54' W 005°37'917.8
2017-Dec-07 08:30N 54°59' W 005°23'917.9
2017-Dec-07 08:00N 55°02' W 005°09'713.4
2017-Dec-07 07:30N 54°58' W 005°01'0 0.0
2017-Dec-07 06:58N 54°58' W 005°01'0 0.0
2017-Dec-07 06:28N 54°58' W 005°01'0 0.0
2017-Dec-07 06:00N 54°58' W 005°01'5 8.9
2017-Dec-07 05:26N 55°02' W 005°07'819.8
2017-Dec-07 05:00N 54°58' W 005°20'1019.4
2017-Dec-07 04:30N 54°54' W 005°36'715.3
2017-Dec-07 04:00N 54°51' W 005°48'0 0.1
2017-Dec-07 03:30N 54°51' W 005°48'0 0.0
2017-Dec-07 03:00N 54°51' W 005°48'0 0.0
2017-Dec-07 02:30N 54°51' W 005°48'0 0.0
2017-Dec-07 02:00N 54°51' W 005°48'610.8
2017-Dec-07 01:29N 54°54' W 005°40'919.0
2017-Dec-07 01:00N 54°59' W 005°26'918.8
2017-Dec-07 00:30N 55°01' W 005°10'7 2.8
2017-Dec-06 22:11N 54°58' W 005°01'0 0.1
2017-Dec-06 22:00N 54°58' W 005°01'611.6
2017-Dec-06 21:29N 55°01' W 005°09'918.4
2017-Dec-06 21:00N 54°58' W 005°23'  
2017-Dec-04 10:24N 54°59' W 005°02'1 1.1
2017-Dec-04 09:19N 54°58' W 005°01'513.7
2017-Dec-04 08:55N 55°01' W 005°08'716.7
2017-Dec-04 08:31N 54°58' W 005°18'917.7
2017-Dec-04 08:00N 54°55' W 005°33'918.5
2017-Dec-04 07:30N 54°51' W 005°48'1 1.3
2017-Dec-04 07:00N 54°51' W 005°48'0 0.0
2017-Dec-04 06:30N 54°51' W 005°48'0 0.0
2017-Dec-04 06:00N 54°51' W 005°48'5 9.9
2017-Dec-04 05:29N 54°54' W 005°41'816.6
2017-Dec-04 05:00N 54°58' W 005°28'917.6
2017-Dec-04 04:30N 55°00' W 005°14'713.5
2017-Dec-04 04:00N 54°59' W 005°02'1 0.4
2017-Dec-04 00:56N 54°58' W 005°01'613.7
2017-Dec-04 00:30N 55°01' W 005°09'918.8
2017-Dec-04 00:00N 54°57' W 005°24'917.5
2017-Dec-03 23:30N 54°54' W 005°38'613.1
2017-Dec-03 23:00N 54°51' W 005°48'0 0.0
2017-Dec-03 22:29N 54°51' W 005°48'0 0.0
2017-Dec-03 21:59N 54°51' W 005°48'4 9.3
2017-Dec-03 21:30N 54°53' W 005°42'918.1
2017-Dec-03 21:01N 54°57' W 005°28'918.8
2017-Dec-03 20:30N 55°01' W 005°12'612.7
2017-Dec-03 20:00N 54°59' W 005°02'1 1.0
2017-Dec-03 18:57N 54°58' W 005°01'0 0.0
2017-Dec-03 18:30N 54°58' W 005°01'5 9.3
2017-Dec-03 17:56N 55°02' W 005°07'716.3
2017-Dec-03 17:30N 54°59' W 005°18'918.5
2017-Dec-03 17:01N 54°55' W 005°33'917.8
2017-Dec-03 16:30N 54°51' W 005°48'1 1.2
2017-Dec-03 15:59N 54°51' W 005°48'0 0.0
2017-Dec-03 15:26N 54°51' W 005°48'0 0.0
2017-Dec-03 14:59N 54°51' W 005°48'4 8.7
2017-Dec-03 14:30N 54°53' W 005°42'918.1
2017-Dec-03 14:01N 54°57' W 005°28'917.6
2017-Dec-03 13:30N 55°01' W 005°14'714.0
2017-Dec-03 13:00N 54°59' W 005°02'1 0.4
2017-Dec-03 09:18N 54°58' W 005°01'613.6
2017-Dec-03 08:53N 55°01' W 005°09'616.5
2017-Dec-03 08:31N 54°58' W 005°18'816.4
2017-Dec-03 08:01N 54°54' W 005°30'1018.6
2017-Dec-03 07:27N 54°52' W 005°48'1 1.8
2017-Dec-03 07:00N 54°51' W 005°48'0 0.0
2017-Dec-03 06:30N 54°51' W 005°48'0 0.0
2017-Dec-03 06:00N 54°51' W 005°48'0 0.0
2017-Dec-03 05:30N 54°51' W 005°48'0 0.0
2017-Dec-03 04:57N 54°51' W 005°48'0 0.0
2017-Dec-03 04:30N 54°51' W 005°48'0 0.0
2017-Dec-03 04:00N 54°51' W 005°48'0 0.0
2017-Dec-03 03:30N 54°51' W 005°48'0 0.0
2017-Dec-03 03:00N 54°51' W 005°48'0 0.0
2017-Dec-03 02:30N 54°51' W 005°48'0 0.0
2017-Dec-03 02:00N 54°51' W 005°48'0 0.0
2017-Dec-03 01:30N 54°51' W 005°48'0 0.0
2017-Dec-03 01:00N 54°51' W 005°48'0 0.0
2017-Dec-03 00:30N 54°51' W 005°48'0 0.0
2017-Dec-03 00:00N 54°51' W 005°48'0 0.0
2017-Dec-02 23:30N 54°51' W 005°48'0 0.0
2017-Dec-02 23:00N 54°51' W 005°48'0 0.0
2017-Dec-02 22:30N 54°51' W 005°48'0 0.0
2017-Dec-02 21:57N 54°51' W 005°48'2 5.0
2017-Dec-02 21:28N 54°52' W 005°45'817.6
2017-Dec-02 21:00N 54°56' W 005°32'917.7
2017-Dec-02 20:30N 54°59' W 005°18'914.1
2017-Dec-02 19:53N 54°59' W 005°02'1 1.3
2017-Dec-02 18:46N 54°58' W 005°01'0 0.1
2017-Dec-02 18:26N 54°58' W 005°01'611.3
2017-Dec-02 17:56N 55°01' W 005°08'715.9
2017-Dec-02 17:30N 54°58' W 005°19'817.0
2017-Dec-02 17:00N 54°55' W 005°33'918.2
2017-Dec-02 16:30N 54°52' W 005°47'1 1.9
2017-Dec-02 16:00N 54°51' W 005°48'0 0.0
2017-Dec-02 15:30N 54°51' W 005°48'610.1
2017-Dec-02 14:57N 54°54' W 005°40'715.8
2017-Dec-02 14:31N 54°57' W 005°29'916.1
2017-Dec-02 13:57N 55°01' W 005°15'714.2
2017-Dec-02 13:27N 54°59' W 005°03'1 3.0
2017-Dec-02 12:58N 54°58' W 005°01'0 0.0
2017-Dec-02 12:26N 54°58' W 005°01'610.2
2017-Dec-02 11:54N 55°01' W 005°08'718.7
2017-Dec-02 11:30N 54°58' W 005°19'1017.8
2017-Dec-02 10:57N 54°54' W 005°35'816.4
2017-Dec-02 10:28N 54°51' W 005°48'0 0.3
2017-Dec-02 09:59N 54°51' W 005°48'0 0.0
2017-Dec-02 09:29N 54°51' W 005°48'4 8.3
2017-Dec-02 09:00N 54°53' W 005°42'917.5
2017-Dec-02 08:30N 54°57' W 005°28'918.1
2017-Dec-02 08:00N 55°01' W 005°14'713.7
2017-Dec-02 07:30N 54°59' W 005°02'1 0.9
2017-Dec-02 05:53N 54°58' W 005°01'510.3
2017-Dec-02 05:24N 55°02' W 005°07'616.6
2017-Dec-02 05:00N 54°59' W 005°17'918.1
2017-Dec-02 04:30N 54°55' W 005°31'1018.7
2017-Dec-02 03:58N 54°52' W 005°47'1 1.8
2017-Dec-02 03:28N 54°51' W 005°48'0 0.0
2017-Dec-02 02:58N 54°51' W 005°48'0 0.0
2017-Dec-02 02:28N 54°51' W 005°48'0 0.0
2017-Dec-02 01:58N 54°51' W 005°48'4 8.0
2017-Dec-02 01:30N 54°53' W 005°43'918.2
2017-Dec-02 01:01N 54°57' W 005°29'917.7
2017-Dec-02 00:31N 55°01' W 005°15'713.9
2017-Dec-02 00:00N 54°59' W 005°03'2 0.8
2017-Dec-01 21:53N 54°58' W 005°01'512.9
2017-Dec-01 21:30N 55°02' W 005°07'918.0
2017-Dec-01 21:00N 54°58' W 005°21'918.5
2017-Dec-01 20:30N 54°54' W 005°36'815.5
2017-Dec-01 20:01N 54°51' W 005°48'0 0.1
2017-Dec-01 19:30N 54°51' W 005°48'0 0.0
2017-Dec-01 19:00N 54°51' W 005°48'0 0.0
2017-Dec-01 18:31N 54°51' W 005°48'611.6
2017-Dec-01 18:00N 54°54' W 005°39'917.6
2017-Dec-01 17:30N 54°58' W 005°26'  

Dump ship's entire track history